Portada
METAR-TAF:

METAR-TAF

Aeroports :

Bordj Badji Mokhtar, Algèria

latitud: 21-22-30N, longitud: 000-55-26E, altitud: 396 m

Observació

L'informe es va fer fa 7 hores i 1 minuts, a les 18:00 UTC
Vent 14 kt del Oest
Temperatura 36°C
Pressió 1007 hPa
Visibilitat 10 km o més
sense núvols per sota de 1500 mi sense presència de cumulonimbus.

METAR: DATM 031800Z 27014KT CAVOK 36/// Q1007

Hora: 02:01 (01:01 UTC)

Pronòstic

L'informe es va fer fa 8 hores i 1 minuts, a les 17:00 UTC
Pronòstic vàlid del 03 a les 18 UTC al 04 a les 03 UTC
Vent 12 kt del Oest
Visibilitat: 8000 m
Probabilitat 40% :
Temporalment
l' 03 a les 18 UTC al 03 a les 21 UTC
Vent 15 kt del Oest amb ràfegues de 25 kt
Visibilitat: 3000 m
torb baixa de sorra
Evolucionant progressivament
l' 03 a les 21 UTC al 03 a les 24 UTC
Vent 5 kt del Nord/Nord-Oest

TAF: DATM 031700Z 0318/0403 27012KT 8000 NSC PROB40 TEMPO 0318/0321 27015G25KT 3000 DRSA BECMG 0321/0324 33005KT

Observacions i pronòstics meteorològics de més de 4000 aeroports (METAR i TAF).

Les estacions disponibles són els punts grocs i vermells al mapa.

Posi el ratolí al punt desitjat per veure el nom de l'estació.

Feu clic per veure les observacions i els pronòstics meteorològics.

Per canviar el mapa: feu clic els botons verds amb una creu de color negre per apropar; al botó verd amb un guió per allunyar la imatge; o en les fletxes verdes per a mapes adjacents.


METAR-TAF: